VH5699 / HK-5308 7700 Squawk Report (27th of May, 2022)

Aircraft A320 Reg No. HK-5308 Age 3 years old
Model A320 Jet engines 2 First flight 03-04-19
Registered 12-04-19 Rollout N/A Delivered 13-04-19
Construction No. 8891 Line No. N/A Series 214(SL)
ADSHEX 0AC40C Airline name Viva Air Colombia Owner N/A
Airfield based Bogota-Eldorado~Distrito Capital~HK First tracked N/A

Flight history for HK-5308

Route Flight No Date Playback
???? N/A 2022-06-28 12:00:00
Simon Bolivar (SMR) - Alfonso Bonilla Aragon Intl (CLO) VH5671 2022-06-28 11:09:00
???? N/A 2022-06-28 00:49:00
Almirante Padilla (RCH) - Alfonso Bonilla Aragon Intl (CLO) VH8333 2022-06-28 00:04:00
???? N/A 2022-06-27 21:27:00
???? N/A 2022-06-27 19:18:00
???? N/A 2022-06-27 15:40:00
???? N/A 2022-06-27 14:09:00
???? N/A 2022-06-27 10:36:00
Simon Bolivar (SMR) - Alfonso Bonilla Aragon Intl (CLO) VH5665 2022-06-27 10:24:00
???? N/A 2022-06-27 02:10:00
???? N/A 2022-06-26 23:36:00
Alfonso Bonilla Aragon Intl (CLO) - Jose Maria Cordova (MDE) VH5812 2022-06-26 22:10:00
Rafael Nunez (CTG) - Alfonso Bonilla Aragon Intl (CLO) VH5783 2022-06-26 22:08:00
Palonegro (BGA) - Rafael Nunez (CTG) VH5724 2022-06-26 19:29:00
Rafael Nunez (CTG) - Palonegro (BGA) VH5725 2022-06-26 15:51:00
Jose Maria Cordova (MDE) - Rafael Nunez (CTG) VH5644 2022-06-26 14:11:00
Gustavo Rojas Pinilla (ADZ) - Jose Maria Cordova (MDE) VH5529 2022-06-26 04:52:00
???? N/A 2022-06-26 02:49:00
???? VVC8055 2022-06-26 01:21:00
Time Lat Lon Altitude Heading Speed Vertical Rate
2022-05-27 19:38:47 GMT 5.927673 -75.421280 10,925 359 232 -2048
2022-05-27 19:38:37 GMT 5.917255 -75.420860 11,325 357 227 -2240
2022-05-27 19:38:28 GMT 5.907339 -75.420097 11,575 353 231 -768
2022-05-27 19:37:30 GMT 5.876149 -75.370476 11,700 270 281 -64
2022-05-27 19:36:39 GMT 5.897424 -75.303703 11,675 217 329 64
2022-05-27 19:36:20 GMT 5.922958 -75.290283 11,700 198 354 -896
2022-05-27 19:36:10 GMT 5.940391 -75.284714 11,825 198 357 -768
2022-05-27 19:35:31 GMT 6.003796 -75.264732 12,950 198 375 -2240
2022-05-27 19:35:29 GMT 6.007233 -75.263611 13,050 198 376 -2688
2022-05-27 19:35:19 GMT 6.021997 -75.258949 13,425 198 377 -2560
2022-05-27 19:35:10 GMT 6.038570 -75.253693 13,800 198 378 -1920
2022-05-27 19:34:59 GMT 6.055984 -75.248199 14,050 198 380 -1088
2022-05-27 19:34:47 GMT 6.076950 -75.241638 14,250 198 380 -1024
2022-05-27 19:34:36 GMT 6.094437 -75.236099 14,425 198 381 -1024
2022-05-27 19:34:23 GMT 6.116364 -75.229210 14,650 198 381 -960
2022-05-27 19:34:16 GMT 6.127206 -75.225754 14,725 198 381 -960
2022-05-27 19:34:07 GMT 6.146027 -75.219849 14,900 198 382 -960
2022-05-27 19:33:55 GMT 6.163147 -75.214455 15,075 198 382 -960
2022-05-27 19:33:45 GMT 6.181998 -75.208519 15,250 198 383 -896
2022-05-27 19:33:34 GMT 6.198663 -75.203262 15,400 198 388 -960
2022-05-27 19:33:23 GMT 6.218727 -75.196915 15,625 198 392 -1280
2022-05-27 19:33:13 GMT 6.235840 -75.191452 15,925 198 397 -2496
2022-05-27 19:33:03 GMT 6.254105 -75.185638 16,425 198 396 -3072
2022-05-27 19:32:52 GMT 6.272402 -75.179825 16,925 198 397 -2560
2022-05-27 19:32:42 GMT 6.290371 -75.174095 17,275 198 402 -1792
2022-05-27 19:32:31 GMT 6.310063 -75.167839 17,600 198 409 -1792
2022-05-27 19:32:22 GMT 6.329009 -75.161827 17,900 198 414 -1728
2022-05-27 19:32:10 GMT 6.347855 -75.155838 18,325 198 414 -3136
2022-05-27 19:32:01 GMT 6.366950 -75.149750 19,000 198 408 -4416
2022-05-27 19:31:49 GMT 6.386129 -75.143692 19,800 198 397 -4480
2022-05-27 19:31:38 GMT 6.405945 -75.137543 20,450 198 395 -2496
2022-05-27 19:31:28 GMT 6.422254 -75.132561 20,775 198 398 -1664
2022-05-27 19:31:15 GMT 6.446548 -75.124001 21,175 204 402 -1792
2022-05-27 19:31:07 GMT 6.459412 -75.117157 21,450 213 404 -2304
2022-05-27 19:30:43 GMT 6.499054 -75.088943 22,475 216 406 -3200
2022-05-27 19:30:36 GMT 6.508072 -75.082382 22,825 216 402 -4032
2022-05-27 19:30:26 GMT 6.523877 -75.070953 23,575 217 394 -4288
2022-05-27 19:30:15 GMT 6.538820 -75.060059 24,250 216 386 -3904
2022-05-27 19:30:05 GMT 6.553624 -75.049309 24,900 217 380 -3584
2022-05-27 19:29:53 GMT 6.570010 -75.037376 25,375 217 380 -1600
2022-05-27 19:29:39 GMT 6.592072 -75.021355 25,875 217 382 -2240
2022-05-27 19:29:33 GMT 6.598873 -75.016403 26,050 217 383 -2304
2022-05-27 19:29:22 GMT 6.615509 -75.004219 26,475 217 383 -2304
2022-05-27 19:29:16 GMT 6.623220 -74.998642 26,675 217 383 -1856
2022-05-27 19:29:03 GMT 6.642334 -74.984718 27,075 217 385 -1856
2022-05-27 19:29:00 GMT 6.647520 -74.980934 27,200 217 387 -1984
2022-05-27 19:28:53 GMT 6.656342 -74.974472 27,400 217 387 -1984
2022-05-27 19:28:50 GMT 6.660690 -74.971352 27,500 217 387 -2048
2022-05-27 19:28:41 GMT 6.675824 -74.960281 27,900 217 387 -2368
2022-05-27 19:28:29 GMT 6.690536 -74.949570 28,350 217 385 -2880
2022-05-27 19:28:20 GMT 6.705571 -74.938599 28,900 216 379 -3456
2022-05-27 19:28:08 GMT 6.720234 -74.927986 29,500 217 372 -2880
2022-05-27 19:27:59 GMT 6.734712 -74.917473 29,850 216 373 -1344
2022-05-27 19:27:47 GMT 6.750074 -74.906303 30,100 217 375 -1600
2022-05-27 19:27:44 GMT 6.754303 -74.903252 30,200 217 375 -1600
2022-05-27 19:27:38 GMT 6.764971 -74.895508 30,375 216 378 -1536
2022-05-27 19:27:34 GMT 6.769089 -74.892494 30,450 217 378 -1408
2022-05-27 19:27:27 GMT 6.779800 -74.884674 30,650 217 380 -1472
2022-05-27 19:27:22 GMT 6.785687 -74.880394 30,750 217 380 -1856
2022-05-27 19:27:17 GMT 6.794951 -74.873672 30,950 216 383 -1664
2022-05-27 19:27:06 GMT 6.809235 -74.863304 31,225 216 383 -1664
2022-05-27 19:26:56 GMT 6.826309 -74.850922 31,500 216 388 -1216
2022-05-27 19:26:44 GMT 6.841782 -74.839767 31,700 216 393 -1152
2022-05-27 19:26:40 GMT 6.846112 -74.836594 31,775 216 394 -1152
2022-05-27 19:26:31 GMT 6.860496 -74.826225 31,950 216 400 -1280
2022-05-27 19:26:20 GMT 6.877441 -74.814056 32,225 216 403 -1536
2022-05-27 19:26:08 GMT 6.895065 -74.801346 32,550 216 406 -1600
2022-05-27 19:25:57 GMT 6.911407 -74.789474 32,825 217 409 -1728
2022-05-27 19:25:45 GMT 6.930588 -74.775322 33,175 217 411 -1792
2022-05-27 19:25:34 GMT 6.947845 -74.762848 33,500 213 415 -1728
2022-05-27 19:25:23 GMT 6.966156 -74.752510 33,800 205 421 -1600
2022-05-27 19:25:12 GMT 6.985931 -74.744781 34,100 196 428 -1600
2022-05-27 19:25:01 GMT 7.008087 -74.739754 34,425 188 432 -1792
2022-05-27 19:24:50 GMT 7.028778 -74.738174 34,700 179 437 -1344
2022-05-27 19:24:38 GMT 7.053680 -74.740036 34,900 169 444 -896
2022-05-27 19:24:28 GMT 7.074280 -74.744926 35,125 160 448 -1600
2022-05-27 19:24:18 GMT 7.094101 -74.753120 35,475 150 448 -2432
2022-05-27 19:24:06 GMT 7.115416 -74.765373 35,950 149 446 -2688
2022-05-27 19:23:55 GMT 7.134888 -74.776863 36,400 149 446 -2240
2022-05-27 19:23:43 GMT 7.155079 -74.788811 36,750 149 445 -1536
2022-05-27 19:23:32 GMT 7.175236 -74.800697 36,925 149 446 -640
2022-05-27 19:23:21 GMT 7.194443 -74.812050 37,000 149 446 0
2022-05-27 19:23:10 GMT 7.215690 -74.824615 37,000 149 446 0
2022-05-27 19:22:58 GMT 7.236964 -74.837158 37,000 149 444 0
2022-05-27 19:22:48 GMT 7.253632 -74.846970 37,000 149 443 0
2022-05-27 19:22:37 GMT 7.273224 -74.858467 37,000 149 442 0
2022-05-27 19:22:26 GMT 7.293060 -74.870026 37,000 149 441 0
2022-05-27 19:22:16 GMT 7.311541 -74.880821 37,000 149 440 0
2022-05-27 19:22:03 GMT 7.334656 -74.894310 37,000 149 440 0
2022-05-27 19:21:51 GMT 7.354431 -74.905952 37,000 149 441 0
2022-05-27 19:21:38 GMT 7.377459 -74.919746 37,000 149 445 0
2022-05-27 19:21:25 GMT 7.401169 -74.932999 37,000 155 451 0
2022-05-27 19:21:14 GMT 7.422801 -74.941719 37,000 162 457 -64
2022-05-27 19:21:01 GMT 7.450699 -74.948730 37,025 169 463 -64
2022-05-27 19:20:53 GMT 7.467911 -74.950874 37,000 176 469 64
2022-05-27 19:20:41 GMT 7.492815 -74.951195 36,975 185 478 -192
2022-05-27 19:20:31 GMT 7.515976 -74.948593 37,025 190 478 0
2022-05-27 19:20:18 GMT 7.544907 -74.943283 37,025 191 477 0
2022-05-27 19:20:07 GMT 7.567337 -74.939140 37,025 191 478 0
2022-05-27 19:19:56 GMT 7.590958 -74.934715 37,025 191 477 0
2022-05-27 19:19:43 GMT 7.619293 -74.929459 37,025 191 477 0
2022-05-27 19:19:33 GMT 7.643005 -74.925079 37,025 191 477 0
2022-05-27 19:19:22 GMT 7.666901 -74.920616 37,025 191 477 0
2022-05-27 19:19:11 GMT 7.690104 -74.916245 37,025 191 476 64
2022-05-27 19:19:01 GMT 7.712585 -74.912048 37,000 191 476 64
2022-05-27 19:18:49 GMT 7.737680 -74.907295 37,000 191 475 64
2022-05-27 19:18:37 GMT 7.764038 -74.902367 37,000 191 475 0
2022-05-27 19:18:26 GMT 7.787910 -74.897827 37,000 191 474 0
2022-05-27 19:18:14 GMT 7.812607 -74.893150 36,975 191 473 0
2022-05-27 19:18:03 GMT 7.836182 -74.888725 36,975 191 473 0
2022-05-27 19:17:52 GMT 7.860809 -74.884163 37,000 191 472 0
2022-05-27 19:17:40 GMT 7.887532 -74.879211 37,000 191 472 0
2022-05-27 19:17:28 GMT 7.913040 -74.874153 37,000 193 471 -64
2022-05-27 19:17:18 GMT 7.934038 -74.869080 37,000 195 470 -64
2022-05-27 19:17:05 GMT 7.960831 -74.861725 37,000 196 469 0
2022-05-27 19:16:49 GMT 7.994934 -74.852318 37,000 196 469 0
2022-05-27 19:16:38 GMT 8.018390 -74.845879 37,000 196 469 0
2022-05-27 19:16:27 GMT 8.040848 -74.839661 37,000 196 469 0
2022-05-27 19:16:16 GMT 8.063553 -74.833374 37,000 196 469 0
2022-05-27 19:16:04 GMT 8.089233 -74.826302 37,000 196 469 0
2022-05-27 19:15:54 GMT 8.110062 -74.820526 37,000 196 470 0
2022-05-27 19:15:44 GMT 8.132676 -74.814339 37,000 196 470 0
2022-05-27 19:15:33 GMT 8.155254 -74.808090 37,000 196 470 0
2022-05-27 19:15:20 GMT 8.182297 -74.800697 37,000 196 470 0
2022-05-27 19:15:09 GMT 8.204739 -74.794594 36,975 196 470 0
2022-05-27 19:14:59 GMT 8.227410 -74.788383 37,000 196 470 -64
2022-05-27 19:14:47 GMT 8.250961 -74.781937 37,000 196 470 0
2022-05-27 19:14:31 GMT 8.286072 -74.772346 37,000 196 470 0
2022-05-27 19:14:20 GMT 8.308830 -74.766129 37,000 196 470 0
2022-05-27 19:14:08 GMT 8.333968 -74.759308 37,000 196 470 0
2022-05-27 19:13:57 GMT 8.357663 -74.752869 37,000 196 470 0
2022-05-27 19:13:45 GMT 8.382294 -74.746231 37,000 196 471 0
2022-05-27 19:13:34 GMT 8.406052 -74.739853 37,000 195 470 0
2022-05-27 19:13:18 GMT 8.440613 -74.730682 37,000 195 471 0
2022-05-27 19:13:07 GMT 8.462778 -74.724838 37,000 195 472 0
2022-05-27 19:12:56 GMT 8.486160 -74.718666 37,000 196 472 0
2022-05-27 19:12:46 GMT 8.507996 -74.712479 37,000 198 472 0
2022-05-27 19:12:35 GMT 8.531250 -74.704842 37,000 200 473 0
2022-05-27 19:12:24 GMT 8.553648 -74.696800 37,000 200 474 0
2022-05-27 19:12:13 GMT 8.576111 -74.688644 37,000 200 474 0
2022-05-27 19:12:02 GMT 8.597855 -74.680779 37,000 200 475 0
2022-05-27 19:11:52 GMT 8.619781 -74.672768 37,000 201 475 64
2022-05-27 19:11:41 GMT 8.642349 -74.664482 36,975 201 477 192
2022-05-27 19:11:30 GMT 8.664721 -74.656219 36,875 201 475 960
2022-05-27 19:11:17 GMT 8.690918 -74.646561 36,675 201 476 960
2022-05-27 19:11:06 GMT 8.715591 -74.637482 36,475 201 476 960
2022-05-27 19:10:52 GMT 8.744888 -74.626678 36,200 201 476 1216
2022-05-27 19:10:44 GMT 8.760727 -74.620819 36,050 201 477 1280
2022-05-27 19:10:33 GMT 8.782837 -74.612625 35,800 201 478 1472
2022-05-27 19:10:23 GMT 8.804581 -74.604568 35,550 201 479 1216
2022-05-27 19:10:12 GMT 8.827328 -74.596123 35,350 201 479 1024
2022-05-27 19:10:01 GMT 8.850232 -74.587555 35,175 201 479 960
2022-05-27 19:09:47 GMT 8.878582 -74.576950 35,000 201 478 704
2022-05-27 19:09:37 GMT 8.900024 -74.568817 34,850 201 476 896
2022-05-27 19:09:25 GMT 8.924204 -74.559662 34,650 201 476 1152
2022-05-27 19:09:15 GMT 8.945897 -74.551613 34,450 199 476 1152
2022-05-27 19:09:04 GMT 8.969009 -74.544189 34,225 195 478 1280
2022-05-27 19:08:53 GMT 8.991806 -74.538933 34,025 190 479 1152
2022-05-27 19:08:42 GMT 9.016470 -74.534851 33,775 190 480 1280
2022-05-27 19:08:26 GMT 9.052781 -74.529022 33,375 190 482 1664
2022-05-27 19:08:16 GMT 9.075119 -74.525475 33,075 190 484 1728
2022-05-27 19:08:05 GMT 9.099426 -74.521545 32,800 190 485 1344
2022-05-27 19:07:53 GMT 9.125542 -74.517326 32,575 190 485 1024
2022-05-27 19:07:42 GMT 9.150029 -74.513397 32,400 190 484 896
2022-05-27 19:07:26 GMT 9.184477 -74.507858 32,150 190 482 1088
2022-05-27 19:07:16 GMT 9.207870 -74.504066 31,950 190 481 1024
2022-05-27 19:07:02 GMT 9.237122 -74.499313 31,775 190 479 576
2022-05-27 19:06:52 GMT 9.260450 -74.495499 31,650 190 477 832
2022-05-27 19:06:41 GMT 9.283075 -74.491852 31,500 190 476 960
2022-05-27 19:06:31 GMT 9.306677 -74.488014 31,300 190 474 1088
2022-05-27 19:06:20 GMT 9.330186 -74.484230 31,100 190 473 1088
2022-05-27 19:06:09 GMT 9.353531 -74.480461 30,900 190 473 1088
2022-05-27 19:05:58 GMT 9.378553 -74.476463 30,700 190 472 1088
2022-05-27 19:05:47 GMT 9.401917 -74.472733 30,525 190 470 832
2022-05-27 19:05:35 GMT 9.428284 -74.468452 30,375 190 468 832
2022-05-27 19:05:24 GMT 9.450714 -74.464821 30,225 190 466 832
2022-05-27 19:05:13 GMT 9.474172 -74.461021 30,075 190 463 832
2022-05-27 19:05:02 GMT 9.497634 -74.457184 29,925 190 461 640
2022-05-27 19:04:50 GMT 9.522726 -74.453117 29,775 190 458 960
2022-05-27 19:04:35 GMT 9.555176 -74.447830 29,450 190 457 1280
2022-05-27 19:04:19 GMT 9.588226 -74.442474 29,125 190 456 1344
2022-05-27 19:04:08 GMT 9.611526 -74.438751 28,900 190 455 1024
2022-05-27 19:03:55 GMT 9.637710 -74.434502 28,700 190 452 960
2022-05-27 19:03:44 GMT 9.660101 -74.430908 28,500 190 451 1280
2022-05-27 19:03:32 GMT 9.686450 -74.426689 28,250 190 449 1216
2022-05-27 19:03:20 GMT 9.709717 -74.422920 28,025 190 448 1152
2022-05-27 19:03:05 GMT 9.741987 -74.417694 27,800 190 442 832
2022-05-27 19:02:54 GMT 9.764191 -74.414078 27,650 190 439 896
2022-05-27 19:02:43 GMT 9.785653 -74.410591 27,450 190 437 1088
2022-05-27 19:02:32 GMT 9.807532 -74.407036 27,250 190 434 1088
2022-05-27 19:02:21 GMT 9.828946 -74.403534 27,025 190 433 1216
2022-05-27 19:02:10 GMT 9.850891 -74.399971 26,800 190 432 1472
2022-05-27 19:01:56 GMT 9.879456 -74.395386 26,450 190 430 1280
2022-05-27 19:01:43 GMT 9.905246 -74.391174 26,200 190 427 1216
2022-05-27 19:01:32 GMT 9.925682 -74.387856 25,950 190 426 1472
2022-05-27 19:01:21 GMT 9.947342 -74.384331 25,700 190 425 1216
2022-05-27 19:01:09 GMT 9.970326 -74.380615 25,475 190 422 1280
2022-05-27 19:00:29 GMT 10.047556 -74.368111 24,475 190 418 1472
2022-05-27 19:00:18 GMT 10.069389 -74.364517 24,250 190 415 896
2022-05-27 19:00:03 GMT 10.097534 -74.359940 23,900 190 412 1856
2022-05-27 18:59:51 GMT 10.120410 -74.356178 23,525 190 412 1984
2022-05-27 18:59:36 GMT 10.149536 -74.351463 22,975 190 414 2112
2022-05-27 18:59:25 GMT 10.170314 -74.348129 22,600 190 415 2112
2022-05-27 18:59:13 GMT 10.192007 -74.344574 22,275 190 413 1344
2022-05-27 18:59:02 GMT 10.214166 -74.340981 22,000 190 409 1472
2022-05-27 18:58:50 GMT 10.235733 -74.337456 21,725 190 406 1408
2022-05-27 18:58:40 GMT 10.254318 -74.334427 21,475 190 404 1600
2022-05-27 18:58:29 GMT 10.275475 -74.330986 21,150 190 402 1856
2022-05-27 18:58:16 GMT 10.297668 -74.327400 20,775 190 399 1792
2022-05-27 18:58:05 GMT 10.318909 -74.323929 20,375 190 399 2112
2022-05-27 18:57:50 GMT 10.345276 -74.319672 19,900 190 398 2112
2022-05-27 18:57:39 GMT 10.365414 -74.316399 19,500 190 398 2240
2022-05-27 18:57:28 GMT 10.385711 -74.313042 19,125 190 396 1728
2022-05-27 18:57:18 GMT 10.404611 -74.310005 18,850 190 392 1664
2022-05-27 18:57:04 GMT 10.428865 -74.306030 18,400 190 389 2048
2022-05-27 18:56:50 GMT 10.454050 -74.301956 17,925 190 387 2304
2022-05-27 18:56:38 GMT 10.475836 -74.298370 17,475 190 386 1856
2022-05-27 18:56:28 GMT 10.493454 -74.295471 17,200 190 381 1728
2022-05-27 18:56:12 GMT 10.521644 -74.290855 16,600 190 379 2496
2022-05-27 18:56:03 GMT 10.537628 -74.288223 16,200 190 380 2688
2022-05-27 18:54:39 GMT 10.679316 -74.265121 13,325 190 354 2112
2022-05-27 18:54:36 GMT 10.685927 -74.264061 13,175 190 351 2496

Making use of Plane Finder data

You are free to use the raw flight data, aircraft information and images provided in this report for your own purposes provided the data is correctly attributed to Plane Finder. We ask that you please credit Plane Finder and link to planefinder.net in close proximity to the content.

Optionally one of the following logos (no smaller then 150x24px) can be used and must link to planefinder.net

Embedding the Plane Finder map

You are welcome to embed the Plane Finder playback map on your website to offer visitors a more interactive experience. We suggest using the following HTML code:

<iframe src="//planefinder.net/data/report/VH5699-HK-5308-7700-squawk-2022-05-27/map" width="800" height="600" seamless="seamless"></iframe>

Where our data comes from

Plane Finder has a global network of data feeds and antenna radars that receive data broadcast directly from aircraft. The primary technologies used are ADS-B and MLAT. We also show feeds from the FAA and a FLARM glider feed.

Click here to find out more about the Plane Finder network.

How we collect our data